Lacey, New Jersey
Current Conditions -  °F | °C
As of 7:35 AM on Monday 26 Jan 2015 (Local Time) from KMJX Reporting Station
Overcast Overcast  
Wind Chill: -8°   Ceiling: 1700
Heat Index: -2°   Visibility: 2.5mi
Dew Point: -3°   Wind: 13mph
Humidity: 93%   Direction: 60°ENE
Pressure: 29.95"   Gusts: 20mph
Location:  39.8591°N, 74.2817°W
Report Text: KMJX 261235Z AUTO 06011G17KT 2 1/2SM SCT008 BKN017 OVC022 M02/M03 A2995 RMK AO1
Loading
Personal Weather Stations






























Interactive Weather Map New forecast layout! Learn more

10-Day Weather Forecast

Advertisements
Track Severe Weather on mobile